^^
Saratoga-Weather Station Historical Data
Daily Summary for September 24, 2022 Units:  Both    English   Metric
Daily Weekly Monthly Yearly Custom
  High: Low: Average:
Temperature: 62.6 °F /  17 °C 47.8 °F /  8.8 °C 55.2 °F /  12.9 °C
Dew Point: 52 °F /  11.1 °C 44.8 °F /  7.1 °C 48.7 °F /  9.3 °C
Humidity: 91% 64% 80%
Wind Speed: 7mph /  11.3km/h - 0.9mph /  1.4km/h
Wind Gust: 8mph /  12.9km/h - -
Wind- - SW
Pressure: 29.9 in /  1013.5 hPa 29.8 in /  1010.5 hPa -
Precipitation: 0 in /  0.0 mm    
Historical Graphs
 
 
Tabular Data for September 24, 2022
Time Temperature Dew Point Pressure Wind Wind Speed Wind Gust Humidity Rainfall Rate (Hourly) solar
00:02 50.5 °F /  10.3 °C 45.5 °F /  7.5 °C 29.9in /  1013.5hPa Calm     83% 0in /  0.0mm 0 W/m2
00:07 50.4 °F /  10.2 °C 45.7 °F /  7.6 °C 29.9in /  1013.5hPa Calm     84% 0in /  0.0mm 0 W/m2
00:12 50.2 °F /  10.1 °C 45.5 °F /  7.5 °C 29.9in /  1013.5hPa Calm     84% 0in /  0.0mm 0 W/m2
00:17 50.2 °F /  10.1 °C 45.5 °F /  7.5 °C 29.9in /  1013.5hPa Calm     84% 0in /  0.0mm 0 W/m2
00:22 49.8 °F /  9.9 °C 45.5 °F /  7.5 °C 29.9in /  1013.5hPa Calm     85% 0in /  0.0mm 0 W/m2
00:27 49.6 °F /  9.8 °C 45.3 °F /  7.4 °C 29.9in /  1013.5hPa Calm     85% 0in /  0.0mm 0 W/m2
00:32 49.6 °F /  9.8 °C 45.3 °F /  7.4 °C 29.9in /  1013.5hPa Calm     85% 0in /  0.0mm 0 W/m2
00:37 49.5 °F /  9.7 °C 45.5 °F /  7.5 °C 29.9in /  1013.5hPa Calm     86% 0in /  0.0mm 0 W/m2
00:42 49.3 °F /  9.6 °C 45.3 °F /  7.4 °C 29.9in /  1013.5hPa Calm     86% 0in /  0.0mm 0 W/m2
00:47 48.9 °F /  9.4 °C 45.1 °F /  7.3 °C 29.9in /  1013.2hPa Calm     87% 0in /  0.0mm 0 W/m2
00:52 48.9 °F /  9.4 °C 45.1 °F /  7.3 °C 29.9in /  1013.2hPa Calm     87% 0in /  0.0mm 0 W/m2
00:57 48.7 °F /  9.3 °C 45 °F /  7.2 °C 29.9in /  1013.2hPa Calm     87% 0in /  0.0mm 0 W/m2
01:02 48.6 °F /  9.2 °C 44.8 °F /  7.1 °C 29.9in /  1013.2hPa Calm     87% 0in /  0.0mm 0 W/m2
01:07 48.6 °F /  9.2 °C 45.1 °F /  7.3 °C 29.9in /  1013.2hPa Calm     88% 0in /  0.0mm 0 W/m2
01:12 48.6 °F /  9.2 °C 45.1 °F /  7.3 °C 29.9in /  1013.2hPa Calm     88% 0in /  0.0mm 0 W/m2
01:17 48.6 °F /  9.2 °C 45.1 °F /  7.3 °C 29.9in /  1013.2hPa Calm     88% 0in /  0.0mm 0 W/m2
01:22 48.6 °F /  9.2 °C 45.1 °F /  7.3 °C 29.9in /  1013.2hPa Calm     88% 0in /  0.0mm 0 W/m2
01:28 48.6 °F /  9.2 °C 45.5 °F /  7.5 °C 29.9in /  1013.2hPa Calm     89% 0in /  0.0mm 0 W/m2
01:33 48.7 °F /  9.3 °C 45.7 °F /  7.6 °C 29.9in /  1013.2hPa Calm     89% 0in /  0.0mm 0 W/m2
01:38 48.9 °F /  9.4 °C 45.9 °F /  7.7 °C 29.9in /  1013.2hPa Calm     89% 0in /  0.0mm 0 W/m2
01:43 48.9 °F /  9.4 °C 45.5 °F /  7.5 °C 29.9in /  1013.2hPa Calm     88% 0in /  0.0mm 0 W/m2
01:48 49.1 °F /  9.5 °C 45.7 °F /  7.6 °C 29.9in /  1013.2hPa Calm     88% 0in /  0.0mm 0 W/m2
01:53 48.9 °F /  9.4 °C 45.5 °F /  7.5 °C 29.9in /  1013.2hPa Calm     88% 0in /  0.0mm 0 W/m2
01:58 48.9 °F /  9.4 °C 45.5 °F /  7.5 °C 29.9in /  1012.9hPa Calm     88% 0in /  0.0mm 0 W/m2
02:03 48.7 °F /  9.3 °C 45.3 °F /  7.4 °C 29.9in /  1012.9hPa Calm     88% 0in /  0.0mm 0 W/m2
02:08 48.7 °F /  9.3 °C 45.3 °F /  7.4 °C 29.9in /  1012.9hPa Calm     88% 0in /  0.0mm 0 W/m2
02:13 48.7 °F /  9.3 °C 45.3 °F /  7.4 °C 29.9in /  1012.9hPa Calm     88% 0in /  0.0mm 0 W/m2
02:18 48.6 °F /  9.2 °C 45.5 °F /  7.5 °C 29.9in /  1012.9hPa Calm     89% 0in /  0.0mm 0 W/m2
02:23 48.6 °F /  9.2 °C 45.5 °F /  7.5 °C 29.9in /  1012.9hPa Calm     89% 0in /  0.0mm 0 W/m2
02:28 48.6 °F /  9.2 °C 45.5 °F /  7.5 °C 29.9in /  1012.9hPa Calm     89% 0in /  0.0mm 0 W/m2
02:33 48.6 °F /  9.2 °C 45.5 °F /  7.5 °C 29.9in /  1012.9hPa Calm     89% 0in /  0.0mm 0 W/m2
02:38 48.4 °F /  9.1 °C 45.3 °F /  7.4 °C 29.9in /  1012.9hPa Calm     89% 0in /  0.0mm 0 W/m2
02:43 48.4 °F /  9.1 °C 45.3 °F /  7.4 °C 29.9in /  1012.5hPa Calm     89% 0in /  0.0mm 0 W/m2
02:48 48.2 °F /  9 °C 45.1 °F /  7.3 °C 29.9in /  1012.9hPa Calm     89% 0in /  0.0mm 0 W/m2
02:53 48 °F /  8.9 °C 45 °F /  7.2 °C 29.9in /  1012.9hPa Calm     89% 0in /  0.0mm 0 W/m2
02:58 48 °F /  8.9 °C 45.1 °F /  7.3 °C 29.9in /  1012.9hPa Calm     90% 0in /  0.0mm 0 W/m2
03:03 48 °F /  8.9 °C 45.1 °F /  7.3 °C 29.9in /  1012.9hPa Calm     90% 0in /  0.0mm 0 W/m2
03:08 48 °F /  8.9 °C 45.1 °F /  7.3 °C 29.9in /  1012.5hPa Calm     90% 0in /  0.0mm 0 W/m2
03:13 48 °F /  8.9 °C 45.1 °F /  7.3 °C 29.9in /  1012.5hPa Calm     90% 0in /  0.0mm 0 W/m2
03:18 47.8 °F /  8.8 °C 45 °F /  7.2 °C 29.9in /  1012.5hPa Calm     90% 0in /  0.0mm 0 W/m2
03:23 47.8 °F /  8.8 °C 45 °F /  7.2 °C 29.9in /  1012.5hPa Calm     90% 0in /  0.0mm 0 W/m2
03:28 47.8 °F /  8.8 °C 45.3 °F /  7.4 °C 29.9in /  1012.2hPa Calm     91% 0in /  0.0mm 0 W/m2
03:33 47.8 °F /  8.8 °C 45.3 °F /  7.4 °C 29.9in /  1012.2hPa Calm     91% 0in /  0.0mm 0 W/m2
03:38 47.8 °F /  8.8 °C 45.3 °F /  7.4 °C 29.9in /  1012.2hPa Calm     91% 0in /  0.0mm 0 W/m2
03:43 48 °F /  8.9 °C 45.5 °F /  7.5 °C 29.9in /  1012.2hPa Calm     91% 0in /  0.0mm 0 W/m2
03:48 48 °F /  8.9 °C 45.5 °F /  7.5 °C 29.9in /  1012.2hPa Calm     91% 0in /  0.0mm 0 W/m2
03:53 48.2 °F /  9 °C 45.7 °F /  7.6 °C 29.9in /  1011.9hPa Calm     91% 0in /  0.0mm 0 W/m2
03:58 48.2 °F /  9 °C 45.7 °F /  7.6 °C 29.9in /  1011.9hPa Calm     91% 0in /  0.0mm 0 W/m2
04:03 48.4 °F /  9.1 °C 45.9 °F /  7.7 °C 29.9in /  1011.9hPa Calm     91% 0in /  0.0mm 0 W/m2
04:08 48.4 °F /  9.1 °C 45.9 °F /  7.7 °C 29.9in /  1011.9hPa Calm     91% 0in /  0.0mm 0 W/m2
04:13 48.4 °F /  9.1 °C 45.9 °F /  7.7 °C 29.9in /  1011.9hPa Calm     91% 0in /  0.0mm 0 W/m2
04:18 48.6 °F /  9.2 °C 46 °F /  7.8 °C 29.9in /  1011.9hPa Calm     91% 0in /  0.0mm 0 W/m2
04:23 48.6 °F /  9.2 °C 46 °F /  7.8 °C 29.9in /  1011.9hPa Calm     91% 0in /  0.0mm 0 W/m2
04:28 48.6 °F /  9.2 °C 46 °F /  7.8 °C 29.9in /  1011.9hPa Calm     91% 0in /  0.0mm 0 W/m2
04:33 48.7 °F /  9.3 °C 46.2 °F /  7.9 °C 29.9in /  1011.9hPa Calm     91% 0in /  0.0mm 0 W/m2
04:38 48.7 °F /  9.3 °C 46.2 °F /  7.9 °C 29.9in /  1011.9hPa Calm     91% 0in /  0.0mm 0 W/m2
04:43 48.7 °F /  9.3 °C 46.2 °F /  7.9 °C 29.9in /  1011.9hPa Calm     91% 0in /  0.0mm 0 W/m2
04:48 48.7 °F /  9.3 °C 45.9 °F /  7.7 °C 29.9in /  1011.9hPa Calm     90% 0in /  0.0mm 0 W/m2
04:53 48.7 °F /  9.3 °C 45.9 °F /  7.7 °C 29.9in /  1011.9hPa Calm     90% 0in /  0.0mm 0 W/m2
04:58 48.7 °F /  9.3 °C 45.9 °F /  7.7 °C 29.9in /  1011.5hPa Calm     90% 0in /  0.0mm 0 W/m2
05:03 48.7 °F /  9.3 °C 45.9 °F /  7.7 °C 29.9in /  1011.5hPa Calm     90% 0in /  0.0mm 0 W/m2
05:08 48.7 °F /  9.3 °C 45.9 °F /  7.7 °C 29.9in /  1011.5hPa Calm     90% 0in /  0.0mm 0 W/m2
05:13 48.7 °F /  9.3 °C 45.9 °F /  7.7 °C 29.9in /  1011.5hPa Calm     90% 0in /  0.0mm 0 W/m2
05:18 48.7 °F /  9.3 °C 45.9 °F /  7.7 °C 29.9in /  1011.2hPa Calm     90% 0in /  0.0mm 0 W/m2
05:23 48.7 °F /  9.3 °C 45.9 °F /  7.7 °C 29.9in /  1011.2hPa Calm     90% 0in /  0.0mm 0 W/m2
05:28 48.7 °F /  9.3 °C 45.9 °F /  7.7 °C 29.9in /  1011.2hPa Calm     90% 0in /  0.0mm 0 W/m2
05:33 48.9 °F /  9.4 °C 46 °F /  7.8 °C 29.9in /  1011.2hPa Calm     90% 0in /  0.0mm 0 W/m2
05:38 48.9 °F /  9.4 °C 46 °F /  7.8 °C 29.9in /  1011.2hPa Calm     90% 0in /  0.0mm 0 W/m2
05:43 48.9 °F /  9.4 °C 46 °F /  7.8 °C 29.9in /  1011.2hPa Calm     90% 0in /  0.0mm 0 W/m2
05:48 48.9 °F /  9.4 °C 46 °F /  7.8 °C 29.9in /  1011.2hPa Calm     90% 0in /  0.0mm 0 W/m2
05:53 48.9 °F /  9.4 °C 46 °F /  7.8 °C 29.9in /  1010.8hPa SSE 2mph /  3.2km/h 2mph /  3.2km/h 90% 0in /  0.0mm 0 W/m2
05:58 49.3 °F /  9.6 °C 46.8 °F /  8.2 °C 29.9in /  1010.8hPa SSE 0.9mph /  1.4km/h 1mph /  1.6km/h 91% 0in /  0.0mm 0 W/m2
06:03 49.3 °F /  9.6 °C 46.8 °F /  8.2 °C 29.9in /  1010.8hPa SSE 2mph /  3.2km/h 2mph /  3.2km/h 91% 0in /  0.0mm 0 W/m2
06:08 49.3 °F /  9.6 °C 46.4 °F /  8 °C 29.9in /  1010.8hPa Calm     90% 0in /  0.0mm 0 W/m2
06:13 49.3 °F /  9.6 °C 46.4 °F /  8 °C 29.9in /  1010.8hPa Calm   2mph /  3.2km/h 90% 0in /  0.0mm 0 W/m2
06:18 49.5 °F /  9.7 °C 46.6 °F /  8.1 °C 29.9in /  1010.8hPa Calm     90% 0in /  0.0mm 0 W/m2
06:23 49.5 °F /  9.7 °C 46.6 °F /  8.1 °C 29.9in /  1010.8hPa Calm     90% 0in /  0.0mm 0 W/m2
06:28 49.5 °F /  9.7 °C 46.4 °F /  8 °C 29.9in /  1010.8hPa Calm     89% 0in /  0.0mm 0 W/m2
06:34 49.5 °F /  9.7 °C 46.4 °F /  8 °C 29.9in /  1010.8hPa Calm     89% 0in /  0.0mm 0 W/m2
06:39 49.5 °F /  9.7 °C 46.4 °F /  8 °C 29.9in /  1010.8hPa Calm     89% 0in /  0.0mm 0 W/m2
06:44 49.5 °F /  9.7 °C 46.4 °F /  8 °C 29.9in /  1010.8hPa Calm     89% 0in /  0.0mm 0 W/m2
06:49 49.5 °F /  9.7 °C 46.4 °F /  8 °C 29.9in /  1010.8hPa Calm     89% 0in /  0.0mm 0 W/m2
06:54 49.6 °F /  9.8 °C 46.6 °F /  8.1 °C 29.9in /  1010.8hPa Calm     89% 0in /  0.0mm 0 W/m2
06:59 49.6 °F /  9.8 °C 46.6 °F /  8.1 °C 29.9in /  1011.2hPa Calm     89% 0in /  0.0mm 0 W/m2
07:04 49.6 °F /  9.8 °C 46.6 °F /  8.1 °C 29.9in /  1010.8hPa Calm     89% 0in /  0.0mm 0 W/m2
07:09 49.6 °F /  9.8 °C 46.6 °F /  8.1 °C 29.9in /  1010.8hPa Calm     89% 0in /  0.0mm 0 W/m2
07:14 49.6 °F /  9.8 °C 46.6 °F /  8.1 °C 29.9in /  1010.8hPa Calm     89% 0in /  0.0mm 0 W/m2
07:19 49.6 °F /  9.8 °C 46.6 °F /  8.1 °C 29.9in /  1010.8hPa Calm     89% 0in /  0.0mm 0 W/m2
07:24 49.6 °F /  9.8 °C 46.6 °F /  8.1 °C 29.9in /  1010.8hPa Calm     89% 0in /  0.0mm 0 W/m2
07:29 49.6 °F /  9.8 °C 46.6 °F /  8.1 °C 29.9in /  1010.8hPa Calm     89% 0in /  0.0mm 0 W/m2
07:34 49.6 °F /  9.8 °C 46.6 °F /  8.1 °C 29.9in /  1010.8hPa Calm     89% 0in /  0.0mm 0 W/m2
07:39 49.6 °F /  9.8 °C 46.6 °F /  8.1 °C 29.9in /  1010.8hPa Calm     89% 0in /  0.0mm 5 W/m2
07:44 49.8 °F /  9.9 °C 46.8 °F /  8.2 °C 29.9in /  1011.2hPa Calm     89% 0in /  0.0mm 0 W/m2
07:49 49.8 °F /  9.9 °C 46.8 °F /  8.2 °C 29.9in /  1011.2hPa Calm     89% 0in /  0.0mm 5 W/m2
07:54 49.8 °F /  9.9 °C 46.8 °F /  8.2 °C 29.9in /  1011.2hPa Calm     89% 0in /  0.0mm 9 W/m2
07:59 50.2 °F /  10.1 °C 47.1 °F /  8.4 °C 29.9in /  1011.2hPa SSE 0.9mph /  1.4km/h 1mph /  1.6km/h 89% 0in /  0.0mm 12 W/m2
08:04 50.2 °F /  10.1 °C 47.1 °F /  8.4 °C 29.9in /  1011.2hPa Calm     89% 0in /  0.0mm 12 W/m2
08:09 50.4 °F /  10.2 °C 47.3 °F /  8.5 °C 29.9in /  1011.2hPa Calm     89% 0in /  0.0mm 14 W/m2
08:14 50.4 °F /  10.2 °C 46.9 °F /  8.3 °C 29.9in /  1011.2hPa Calm     88% 0in /  0.0mm 21 W/m2
08:19 50.5 °F /  10.3 °C 47.1 °F /  8.4 °C 29.9in /  1011.2hPa SSE 0.9mph /  1.4km/h 1mph /  1.6km/h 88% 0in /  0.0mm 33 W/m2
08:24 50.5 °F /  10.3 °C 47.1 °F /  8.4 °C 29.9in /  1011.2hPa Calm   1mph /  1.6km/h 88% 0in /  0.0mm 39 W/m2
08:29 50.7 °F /  10.4 °C 46.9 °F /  8.3 °C 29.9in /  1011.2hPa Calm     87% 0in /  0.0mm 42 W/m2
08:34 50.9 °F /  10.5 °C 47.1 °F /  8.4 °C 29.9in /  1011.5hPa Calm     87% 0in /  0.0mm 51 W/m2
08:39 51.1 °F /  10.6 °C 47.3 °F /  8.5 °C 29.9in /  1011.2hPa SSE 0.9mph /  1.4km/h 1mph /  1.6km/h 87% 0in /  0.0mm 60 W/m2
08:44 51.3 °F /  10.7 °C 47.5 °F /  8.6 °C 29.9in /  1011.2hPa Calm     87% 0in /  0.0mm 63 W/m2
08:49 51.4 °F /  10.8 °C 47.5 °F /  8.6 °C 29.9in /  1011.2hPa Calm   2mph /  3.2km/h 86% 0in /  0.0mm 60 W/m2
08:54 51.4 °F /  10.8 °C 47.5 °F /  8.6 °C 29.9in /  1011.2hPa SE 0.9mph /  1.4km/h 1mph /  1.6km/h 86% 0in /  0.0mm 56 W/m2
08:59 51.6 °F /  10.9 °C 47.5 °F /  8.6 °C 29.9in /  1011.2hPa Calm   2mph /  3.2km/h 86% 0in /  0.0mm 54 W/m2
09:04 51.8 °F /  11 °C 47.7 °F /  8.7 °C 29.9in /  1011.2hPa Calm   1mph /  1.6km/h 86% 0in /  0.0mm 53 W/m2
09:09 51.8 °F /  11 °C 47.5 °F /  8.6 °C 29.9in /  1011.2hPa Calm   2mph /  3.2km/h 85% 0in /  0.0mm 47 W/m2
09:14 52 °F /  11.1 °C 47.7 °F /  8.7 °C 29.9in /  1011.2hPa Calm     85% 0in /  0.0mm 74 W/m2
09:19 52 °F /  11.1 °C 47.7 °F /  8.7 °C 29.9in /  1011.2hPa Calm     85% 0in /  0.0mm 98 W/m2
09:24 52.2 °F /  11.2 °C 47.8 °F /  8.8 °C 29.9in /  1011.2hPa Calm   1mph /  1.6km/h 85% 0in /  0.0mm 165 W/m2
09:29 52.5 °F /  11.4 °C 48.2 °F /  9 °C 29.9in /  1011.2hPa Calm     85% 0in /  0.0mm 304 W/m2
09:34 53.1 °F /  11.7 °C 48.7 °F /  9.3 °C 29.9in /  1011.2hPa SE 0.9mph /  1.4km/h 1mph /  1.6km/h 85% 0in /  0.0mm 149 W/m2
09:39 53.6 °F /  12 °C 48.9 °F /  9.4 °C 29.9in /  1011.2hPa Calm   1mph /  1.6km/h 84% 0in /  0.0mm 149 W/m2
09:44 54 °F /  12.2 °C 48.6 °F /  9.2 °C 29.9in /  1011.5hPa ENE 0.9mph /  1.4km/h 2mph /  3.2km/h 82% 0in /  0.0mm 128 W/m2
09:49 54.1 °F /  12.3 °C 48.7 °F /  9.3 °C 29.9in /  1011.5hPa SE 0.9mph /  1.4km/h 2mph /  3.2km/h 82% 0in /  0.0mm 137 W/m2
09:54 54.1 °F /  12.3 °C 48.7 °F /  9.3 °C 29.9in /  1011.5hPa SE 0.9mph /  1.4km/h 2mph /  3.2km/h 82% 0in /  0.0mm 153 W/m2
09:59 54.3 °F /  12.4 °C 48.9 °F /  9.4 °C 29.9in /  1011.5hPa Calm   2mph /  3.2km/h 82% 0in /  0.0mm 155 W/m2
10:04 54.3 °F /  12.4 °C 48.6 °F /  9.2 °C 29.9in /  1011.2hPa Calm   1mph /  1.6km/h 81% 0in /  0.0mm 149 W/m2
10:09 54.7 °F /  12.6 °C 48.9 °F /  9.4 °C 29.9in /  1011.5hPa Calm     81% 0in /  0.0mm 162 W/m2
10:14 54.7 °F /  12.6 °C 48.9 °F /  9.4 °C 29.9in /  1011.5hPa Calm   2mph /  3.2km/h 81% 0in /  0.0mm 130 W/m2
10:19 54.9 °F /  12.7 °C 48.7 °F /  9.3 °C 29.9in /  1011.5hPa SE 0.9mph /  1.4km/h 2mph /  3.2km/h 80% 0in /  0.0mm 146 W/m2
10:24 55 °F /  12.8 °C 48.9 °F /  9.4 °C 29.9in /  1011.5hPa Calm     80% 0in /  0.0mm 148 W/m2
10:29 55 °F /  12.8 °C 48.9 °F /  9.4 °C 29.9in /  1011.5hPa Calm   1mph /  1.6km/h 80% 0in /  0.0mm 128 W/m2
10:35 55.2 °F /  12.9 °C 49.1 °F /  9.5 °C 29.9in /  1011.5hPa SE 0.9mph /  1.4km/h 2mph /  3.2km/h 80% 0in /  0.0mm 132 W/m2
10:40 55.4 °F /  13 °C 49.3 °F /  9.6 °C 29.9in /  1011.5hPa SE 0.9mph /  1.4km/h 1mph /  1.6km/h 80% 0in /  0.0mm 107 W/m2
10:45 55.6 °F /  13.1 °C 49.5 °F /  9.7 °C 29.9in /  1011.5hPa Calm   2mph /  3.2km/h 80% 0in /  0.0mm 97 W/m2
10:50 55.6 °F /  13.1 °C 49.5 °F /  9.7 °C 29.9in /  1011.5hPa SE 0.9mph /  1.4km/h 2mph /  3.2km/h 80% 0in /  0.0mm 102 W/m2
10:55 55.6 °F /  13.1 °C 49.5 °F /  9.7 °C 29.9in /  1011.5hPa Calm   1mph /  1.6km/h 80% 0in /  0.0mm 109 W/m2
11:00 55.6 °F /  13.1 °C 49.5 °F /  9.7 °C 29.9in /  1011.5hPa SE 2mph /  3.2km/h 2mph /  3.2km/h 80% 0in /  0.0mm 120 W/m2
11:05 55.6 °F /  13.1 °C 49.5 °F /  9.7 °C 29.9in /  1011.5hPa Calm   2mph /  3.2km/h 80% 0in /  0.0mm 141 W/m2
11:10 55.8 °F /  13.2 °C 50 °F /  10 °C 29.9in /  1011.5hPa ENE 2.9mph /  4.7km/h 3mph /  4.8km/h 81% 0in /  0.0mm 153 W/m2
11:15 55.8 °F /  13.2 °C 49.6 °F /  9.8 °C 29.9in /  1011.5hPa ESE 0.9mph /  1.4km/h 1mph /  1.6km/h 80% 0in /  0.0mm 190 W/m2
11:20 55.9 °F /  13.3 °C 50.2 °F /  10.1 °C 29.9in /  1011.5hPa ESE 2mph /  3.2km/h 3mph /  4.8km/h 81% 0in /  0.0mm 204 W/m2
11:25 56.1 °F /  13.4 °C 50 °F /  10 °C 29.9in /  1011.9hPa East 0.9mph /  1.4km/h 2mph /  3.2km/h 80% 0in /  0.0mm 216 W/m2
11:30 56.1 °F /  13.4 °C 50 °F /  10 °C 29.9in /  1011.9hPa ENE 2.9mph /  4.7km/h 3mph /  4.8km/h 80% 0in /  0.0mm 185 W/m2
11:35 56.5 °F /  13.6 °C 50.4 °F /  10.2 °C 29.9in /  1011.9hPa ESE 2mph /  3.2km/h 3mph /  4.8km/h 80% 0in /  0.0mm 197 W/m2
11:40 56.7 °F /  13.7 °C 50.2 °F /  10.1 °C 29.9in /  1011.9hPa ESE 2mph /  3.2km/h 3mph /  4.8km/h 79% 0in /  0.0mm 234 W/m2
11:45 56.8 °F /  13.8 °C 50.7 °F /  10.4 °C 29.9in /  1011.9hPa ESE 2.9mph /  4.7km/h 4mph /  6.4km/h 80% 0in /  0.0mm 262 W/m2
11:50 57.2 °F /  14 °C 51.1 °F /  10.6 °C 29.9in /  1011.5hPa East 2.9mph /  4.7km/h 3mph /  4.8km/h 80% 0in /  0.0mm 295 W/m2
11:55 57.4 °F /  14.1 °C 51.3 °F /  10.7 °C 29.9in /  1011.5hPa Calm   2mph /  3.2km/h 80% 0in /  0.0mm 302 W/m2
12:00 57.7 °F /  14.3 °C 51.3 °F /  10.7 °C 29.9in /  1011.9hPa ENE 2mph /  3.2km/h 3mph /  4.8km/h 79% 0in /  0.0mm 267 W/m2
12:05 57.7 °F /  14.3 °C 50.9 °F /  10.5 °C 29.9in /  1011.9hPa ENE 2mph /  3.2km/h 3mph /  4.8km/h 78% 0in /  0.0mm 272 W/m2
12:10 58.1 °F /  14.5 °C 51.3 °F /  10.7 °C 29.9in /  1011.5hPa Calm   3mph /  4.8km/h 78% 0in /  0.0mm 274 W/m2
12:15 58.5 °F /  14.7 °C 51.6 °F /  10.9 °C 29.9in /  1011.5hPa ESE 2mph /  3.2km/h 3mph /  4.8km/h 78% 0in /  0.0mm 267 W/m2
12:20 58.8 °F /  14.9 °C 51.6 °F /  10.9 °C 29.9in /  1011.5hPa ENE 0.9mph /  1.4km/h 4mph /  6.4km/h 77% 0in /  0.0mm 290 W/m2
12:25 59.4 °F /  15.2 °C 51.8 °F /  11 °C 29.9in /  1011.5hPa ENE 2mph /  3.2km/h 3mph /  4.8km/h 76% 0in /  0.0mm 306 W/m2
12:30 59.7 °F /  15.4 °C 51.8 °F /  11 °C 29.9in /  1011.5hPa NE 2mph /  3.2km/h 3mph /  4.8km/h 75% 0in /  0.0mm 315 W/m2
12:35 60.1 °F /  15.6 °C 51.8 °F /  11 °C 29.9in /  1011.5hPa WNW 0.9mph /  1.4km/h 2mph /  3.2km/h 74% 0in /  0.0mm 406 W/m2
12:40 60.4 °F /  15.8 °C 51.8 °F /  11 °C 29.9in /  1011.5hPa NNE 2.9mph /  4.7km/h 8mph /  12.9km/h 73% 0in /  0.0mm 269 W/m2
12:45 60.6 °F /  15.9 °C 51.1 °F /  10.6 °C 29.9in /  1011.5hPa WNW 4mph /  6.4km/h 4mph /  6.4km/h 71% 0in /  0.0mm 341 W/m2
12:50 61 °F /  16.1 °C 51.1 °F /  10.6 °C 29.9in /  1011.5hPa NW 6.9mph /  11.1km/h 8mph /  12.9km/h 70% 0in /  0.0mm 290 W/m2
12:55 61.2 °F /  16.2 °C 50.9 °F /  10.5 °C 29.9in /  1011.5hPa WNW 0.9mph /  1.4km/h 7mph /  11.3km/h 69% 0in /  0.0mm 415 W/m2
13:00 61.5 °F /  16.4 °C 51.3 °F /  10.7 °C 29.9in /  1011.5hPa West 2.9mph /  4.7km/h 8mph /  12.9km/h 69% 0in /  0.0mm 390 W/m2
13:05 61.5 °F /  16.4 °C 50.9 °F /  10.5 °C 29.9in /  1011.5hPa West 2mph /  3.2km/h 8mph /  12.9km/h 68% 0in /  0.0mm 413 W/m2
13:10 61.7 °F /  16.5 °C 51.1 °F /  10.6 °C 29.9in /  1011.5hPa NNW 0.9mph /  1.4km/h 4mph /  6.4km/h 68% 0in /  0.0mm 299 W/m2
13:15 61.7 °F /  16.5 °C 51.1 °F /  10.6 °C 29.9in /  1011.5hPa WNW 2.9mph /  4.7km/h 3mph /  4.8km/h 68% 0in /  0.0mm 211 W/m2
13:20 61.7 °F /  16.5 °C 51.1 °F /  10.6 °C 29.9in /  1011.5hPa WSW 0.9mph /  1.4km/h 2mph /  3.2km/h 68% 0in /  0.0mm 199 W/m2
13:25 61.5 °F /  16.4 °C 50.5 °F /  10.3 °C 29.9in /  1011.5hPa WNW 0.9mph /  1.4km/h 3mph /  4.8km/h 67% 0in /  0.0mm 236 W/m2
13:30 61.5 °F /  16.4 °C 50.9 °F /  10.5 °C 29.9in /  1011.5hPa WSW 4mph /  6.4km/h 7mph /  11.3km/h 68% 0in /  0.0mm 301 W/m2
13:35 61.3 °F /  16.3 °C 50.4 °F /  10.2 °C 29.9in /  1011.5hPa West 6mph /  9.7km/h 7mph /  11.3km/h 67% 0in /  0.0mm 178 W/m2
13:40 61.2 °F /  16.2 °C 50.2 °F /  10.1 °C 29.9in /  1011.5hPa West 2mph /  3.2km/h 4mph /  6.4km/h 67% 0in /  0.0mm 227 W/m2
13:45 61.2 °F /  16.2 °C 50.2 °F /  10.1 °C 29.9in /  1011.5hPa West 4mph /  6.4km/h 7mph /  11.3km/h 67% 0in /  0.0mm 202 W/m2
13:50 61.2 °F /  16.2 °C 50.5 °F /  10.3 °C 29.9in /  1011.5hPa WNW 2mph /  3.2km/h 2mph /  3.2km/h 68% 0in /  0.0mm 287 W/m2
13:55 61.2 °F /  16.2 °C 50.9 °F /  10.5 °C 29.9in /  1011.5hPa WSW 2mph /  3.2km/h 5mph /  8km/h 69% 0in /  0.0mm 287 W/m2
14:00 61 °F /  16.1 °C 51.1 °F /  10.6 °C 29.9in /  1011.2hPa WNW 2mph /  3.2km/h 3mph /  4.8km/h 70% 0in /  0.0mm 332 W/m2
14:05 61 °F /  16.1 °C 51.1 °F /  10.6 °C 29.9in /  1011.2hPa Calm   4mph /  6.4km/h 70% 0in /  0.0mm 283 W/m2
14:10 61.2 °F /  16.2 °C 50.9 °F /  10.5 °C 29.9in /  1011.2hPa SSW 0.9mph /  1.4km/h 3mph /  4.8km/h 69% 0in /  0.0mm 250 W/m2
14:15 61.2 °F /  16.2 °C 51.3 °F /  10.7 °C 29.9in /  1011.2hPa ENE 0.9mph /  1.4km/h 4mph /  6.4km/h 70% 0in /  0.0mm 267 W/m2
14:20 61 °F /  16.1 °C 51.1 °F /  10.6 °C 29.9in /  1011.2hPa WSW 2mph /  3.2km/h 5mph /  8km/h 70% 0in /  0.0mm 271 W/m2
14:25 61 °F /  16.1 °C 51.4 °F /  10.8 °C 29.9in /  1011.2hPa West 2mph /  3.2km/h 2mph /  3.2km/h 71% 0in /  0.0mm 255 W/m2
14:30 61 °F /  16.1 °C 51.1 °F /  10.6 °C 29.9in /  1011.2hPa Calm   3mph /  4.8km/h 70% 0in /  0.0mm 216 W/m2
14:35 61.2 °F /  16.2 °C 51.6 °F /  10.9 °C 29.9in /  1011.2hPa North 0.9mph /  1.4km/h 4mph /  6.4km/h 71% 0in /  0.0mm 214 W/m2
14:40 61.3 °F /  16.3 °C 51.4 °F /  10.8 °C 29.9in /  1011.2hPa ENE 2.9mph /  4.7km/h 5mph /  8km/h 70% 0in /  0.0mm 250 W/m2
14:45 61.5 °F /  16.4 °C 51.6 °F /  10.9 °C 29.9in /  1011.2hPa ENE 2mph /  3.2km/h 4mph /  6.4km/h 70% 0in /  0.0mm 223 W/m2
14:50 61.5 °F /  16.4 °C 51.6 °F /  10.9 °C 29.9in /  1011.2hPa North 0.9mph /  1.4km/h 4mph /  6.4km/h 70% 0in /  0.0mm 179 W/m2
14:55 61.5 °F /  16.4 °C 51.3 °F /  10.7 °C 29.9in /  1011.2hPa ENE 0.9mph /  1.4km/h 6mph /  9.7km/h 69% 0in /  0.0mm 220 W/m2
15:00 61.3 °F /  16.3 °C 51.1 °F /  10.6 °C 29.9in /  1010.8hPa Calm   4mph /  6.4km/h 69% 0in /  0.0mm 214 W/m2
15:05 61.5 °F /  16.4 °C 51.3 °F /  10.7 °C 29.9in /  1011.2hPa WSW 2mph /  3.2km/h 5mph /  8km/h 69% 0in /  0.0mm 325 W/m2
15:10 61.9 °F /  16.6 °C 52 °F /  11.1 °C 29.9in /  1010.8hPa West 7mph /  11.3km/h 7mph /  11.3km/h 70% 0in /  0.0mm 387 W/m2
15:15 62.2 °F /  16.8 °C 51.6 °F /  10.9 °C 29.9in /  1010.8hPa SE 4mph /  6.4km/h 5mph /  8km/h 68% 0in /  0.0mm 352 W/m2
15:20 62.4 °F /  16.9 °C 51.8 °F /  11 °C 29.9in /  1010.8hPa ENE 7mph /  11.3km/h 7mph /  11.3km/h 68% 0in /  0.0mm 290 W/m2
15:25 62.6 °F /  17 °C 51.4 °F /  10.8 °C 29.9in /  1010.8hPa NW 0.9mph /  1.4km/h 4mph /  6.4km/h 67% 0in /  0.0mm 246 W/m2
15:30 62.6 °F /  17 °C 51.1 °F /  10.6 °C 29.9in /  1011.2hPa WNW 6.9mph /  11.1km/h 8mph /  12.9km/h 66% 0in /  0.0mm 207 W/m2
15:35 62.1 °F /  16.7 °C 50.9 °F /  10.5 °C 29.9in /  1010.8hPa NW 0.9mph /  1.4km/h 3mph /  4.8km/h 67% 0in /  0.0mm 146 W/m2
15:40 62.1 °F /  16.7 °C 51.4 °F /  10.8 °C 29.9in /  1011.2hPa West 4mph /  6.4km/h 4mph /  6.4km/h 68% 0in /  0.0mm 90 W/m2
15:45 61.9 °F /  16.6 °C 51.3 °F /  10.7 °C 29.9in /  1011.2hPa WSW 2mph /  3.2km/h 3mph /  4.8km/h 68% 0in /  0.0mm 95 W/m2
15:50 61.5 °F /  16.4 °C 50.9 °F /  10.5 °C 29.9in /  1011.2hPa WNW 2.9mph /  4.7km/h 5mph /  8km/h 68% 0in /  0.0mm 88 W/m2
15:55 61.3 °F /  16.3 °C 51.1 °F /  10.6 °C 29.9in /  1011.2hPa WSW 2mph /  3.2km/h 5mph /  8km/h 69% 0in /  0.0mm 100 W/m2
16:00 61.2 °F /  16.2 °C 51.3 °F /  10.7 °C 29.9in /  1011.2hPa WNW 2.9mph /  4.7km/h 3mph /  4.8km/h 70% 0in /  0.0mm 120 W/m2
16:05 61.2 °F /  16.2 °C 50.9 °F /  10.5 °C 29.9in /  1010.8hPa WNW 0.9mph /  1.4km/h 2mph /  3.2km/h 69% 0in /  0.0mm 151 W/m2
16:10 61.2 °F /  16.2 °C 50.9 °F /  10.5 °C 29.9in /  1010.8hPa East 2mph /  3.2km/h 3mph /  4.8km/h 69% 0in /  0.0mm 151 W/m2
16:15 61.2 °F /  16.2 °C 51.3 °F /  10.7 °C 29.9in /  1010.8hPa WNW 0.9mph /  1.4km/h 4mph /  6.4km/h 70% 0in /  0.0mm 153 W/m2
16:20 61.2 °F /  16.2 °C 51.3 °F /  10.7 °C 29.9in /  1010.8hPa WNW 2mph /  3.2km/h 4mph /  6.4km/h 70% 0in /  0.0mm 148 W/m2
16:25 61.2 °F /  16.2 °C 51.3 °F /  10.7 °C 29.9in /  1010.8hPa WNW 0.9mph /  1.4km/h 4mph /  6.4km/h 70% 0in /  0.0mm 127 W/m2
16:30 61.2 °F /  16.2 °C 50.9 °F /  10.5 °C 29.9in /  1010.8hPa WSW 0.9mph /  1.4km/h 4mph /  6.4km/h 69% 0in /  0.0mm 120 W/m2
16:35 61.2 °F /  16.2 °C 51.3 °F /  10.7 °C 29.9in /  1010.8hPa NW 2mph /  3.2km/h 2mph /  3.2km/h 70% 0in /  0.0mm 149 W/m2
16:40 61.3 °F /  16.3 °C 50.7 °F /  10.4 °C 29.9in /  1010.8hPa WSW 2mph /  3.2km/h 5mph /  8km/h 68% 0in /  0.0mm 165 W/m2
16:45 61.2 °F /  16.2 °C 50.2 °F /  10.1 °C 29.9in /  1010.8hPa West 2mph /  3.2km/h 4mph /  6.4km/h 67% 0in /  0.0mm 163 W/m2
16:50 61.2 °F /  16.2 °C 50.2 °F /  10.1 °C 29.9in /  1010.8hPa SSW 0.9mph /  1.4km/h 2mph /  3.2km/h 67% 0in /  0.0mm 167 W/m2
16:55 61.3 °F /  16.3 °C 50.7 °F /  10.4 °C 29.9in /  1010.8hPa SSW 2mph /  3.2km/h 5mph /  8km/h 68% 0in /  0.0mm 151 W/m2
17:00 61.3 °F /  16.3 °C 50.4 °F /  10.2 °C 29.9in /  1010.8hPa Calm   1mph /  1.6km/h 67% 0in /  0.0mm 128 W/m2
17:05 61.5 °F /  16.4 °C 50 °F /  10 °C 29.9in /  1010.8hPa NNW 0.9mph /  1.4km/h 5mph /  8km/h 66% 0in /  0.0mm 107 W/m2
17:10 61.5 °F /  16.4 °C 50.5 °F /  10.3 °C 29.9in /  1010.8hPa NNW 0.9mph /  1.4km/h 2mph /  3.2km/h 67% 0in /  0.0mm 109 W/m2
17:15 61.7 °F /  16.5 °C 50.2 °F /  10.1 °C 29.9in /  1010.8hPa West 0.9mph /  1.4km/h 7mph /  11.3km/h 66% 0in /  0.0mm 118 W/m2
17:20 61.5 °F /  16.4 °C 50 °F /  10 °C 29.9in /  1010.8hPa WNW 0.9mph /  1.4km/h 4mph /  6.4km/h 66% 0in /  0.0mm 120 W/m2
17:25 61.5 °F /  16.4 °C 50.5 °F /  10.3 °C 29.9in /  1010.8hPa Calm   7mph /  11.3km/h 67% 0in /  0.0mm 113 W/m2
17:31 61.5 °F /  16.4 °C 50.5 °F /  10.3 °C 29.9in /  1010.8hPa NNE 0.9mph /  1.4km/h 2mph /  3.2km/h 67% 0in /  0.0mm 102 W/m2
17:36 61.5 °F /  16.4 °C 50 °F /  10 °C 29.9in /  1010.8hPa SSE 0.9mph /  1.4km/h 3mph /  4.8km/h 66% 0in /  0.0mm 95 W/m2
17:41 61.5 °F /  16.4 °C 50 °F /  10 °C 29.9in /  1010.8hPa West 0.9mph /  1.4km/h 4mph /  6.4km/h 66% 0in /  0.0mm 86 W/m2
17:46 61.5 °F /  16.4 °C 50 °F /  10 °C 29.9in /  1010.8hPa West 2.9mph /  4.7km/h 3mph /  4.8km/h 66% 0in /  0.0mm 84 W/m2
17:51 61.3 °F /  16.3 °C 49.5 °F /  9.7 °C 29.9in /  1010.8hPa West 2mph /  3.2km/h 3mph /  4.8km/h 65% 0in /  0.0mm 97 W/m2
17:56 61.3 °F /  16.3 °C 49.5 °F /  9.7 °C 29.9in /  1010.8hPa WNW 0.9mph /  1.4km/h 3mph /  4.8km/h 65% 0in /  0.0mm 134 W/m2
18:01 61.5 °F /  16.4 °C 49.3 °F /  9.6 °C 29.9in /  1010.8hPa West 0.9mph /  1.4km/h 4mph /  6.4km/h 64% 0in /  0.0mm 69 W/m2
18:06 61.3 °F /  16.3 °C 49.1 °F /  9.5 °C 29.8in /  1010.5hPa WSW 0.9mph /  1.4km/h 4mph /  6.4km/h 64% 0in /  0.0mm 60 W/m2
18:11 61.3 °F /  16.3 °C 49.5 °F /  9.7 °C 29.8in /  1010.5hPa WSW 2.9mph /  4.7km/h 6mph /  9.7km/h 65% 0in /  0.0mm 56 W/m2
18:16 61.2 °F /  16.2 °C 49.3 °F /  9.6 °C 29.8in /  1010.5hPa Calm   3mph /  4.8km/h 65% 0in /  0.0mm 54 W/m2
18:21 61.2 °F /  16.2 °C 49.3 °F /  9.6 °C 29.9in /  1010.8hPa West 2mph /  3.2km/h 3mph /  4.8km/h 65% 0in /  0.0mm 49 W/m2
18:26 61.2 °F /  16.2 °C 49.6 °F /  9.8 °C 29.9in /  1010.8hPa West 2.9mph /  4.7km/h 4mph /  6.4km/h 66% 0in /  0.0mm 40 W/m2
18:31 61.2 °F /  16.2 °C 49.3 °F /  9.6 °C 29.9in /  1010.8hPa West 2mph /  3.2km/h 3mph /  4.8km/h 65% 0in /  0.0mm 35 W/m2
18:36 61 °F /  16.1 °C 49.5 °F /  9.7 °C 29.9in /  1010.8hPa West 2mph /  3.2km/h 3mph /  4.8km/h 66% 0in /  0.0mm 32 W/m2
18:41 60.8 °F /  16 °C 49.5 °F /  9.7 °C 29.9in /  1010.8hPa West 0.9mph /  1.4km/h 2mph /  3.2km/h 66% 0in /  0.0mm 28 W/m2
18:46 60.6 °F /  15.9 °C 49.6 °F /  9.8 °C 29.9in /  1010.8hPa WNW 2mph /  3.2km/h 4mph /  6.4km/h 67% 0in /  0.0mm 25 W/m2
18:51 60.6 °F /  15.9 °C 49.6 °F /  9.8 °C 29.9in /  1010.8hPa Calm   1mph /  1.6km/h 67% 0in /  0.0mm 23 W/m2
18:56 60.4 °F /  15.8 °C 49.8 °F /  9.9 °C 29.9in /  1010.8hPa West 0.9mph /  1.4km/h 2mph /  3.2km/h 68% 0in /  0.0mm 19 W/m2
19:01 60.3 °F /  15.7 °C 50 °F /  10 °C 29.9in /  1010.8hPa West 0.9mph /  1.4km/h 2mph /  3.2km/h 69% 0in /  0.0mm 16 W/m2
19:06 60.1 °F /  15.6 °C 49.8 °F /  9.9 °C 29.9in /  1010.8hPa West 2mph /  3.2km/h 2mph /  3.2km/h 69% 0in /  0.0mm 12 W/m2
19:11 59.9 °F /  15.5 °C 50.2 °F /  10.1 °C 29.9in /  1010.8hPa West 0.9mph /  1.4km/h 2mph /  3.2km/h 70% 0in /  0.0mm 7 W/m2
19:16 59.7 °F /  15.4 °C 50 °F /  10 °C 29.9in /  1010.8hPa West 0.9mph /  1.4km/h 2mph /  3.2km/h 70% 0in /  0.0mm 5 W/m2
19:21 59.7 °F /  15.4 °C 50 °F /  10 °C 29.9in /  1011.2hPa WNW 2mph /  3.2km/h 3mph /  4.8km/h 70% 0in /  0.0mm 0 W/m2
19:26 59.7 °F /  15.4 °C 50 °F /  10 °C 29.9in /  1011.2hPa West 2mph /  3.2km/h 3mph /  4.8km/h 70% 0in /  0.0mm 0 W/m2
19:31 59.5 °F /  15.3 °C 50.2 °F /  10.1 °C 29.9in /  1011.2hPa WSW 2.9mph /  4.7km/h 3mph /  4.8km/h 71% 0in /  0.0mm 0 W/m2
19:36 59.5 °F /  15.3 °C 50.2 °F /  10.1 °C 29.9in /  1011.2hPa WNW 2mph /  3.2km/h 4mph /  6.4km/h 71% 0in /  0.0mm 0 W/m2
19:41 59.4 °F /  15.2 °C 50.4 °F /  10.2 °C 29.9in /  1011.2hPa West 2mph /  3.2km/h 3mph /  4.8km/h 72% 0in /  0.0mm 0 W/m2
19:46 59.4 °F /  15.2 °C 50.4 °F /  10.2 °C 29.9in /  1011.2hPa West 2.9mph /  4.7km/h 4mph /  6.4km/h 72% 0in /  0.0mm 0 W/m2
19:51 59.4 °F /  15.2 °C 50.4 °F /  10.2 °C 29.9in /  1011.2hPa West 0.9mph /  1.4km/h 3mph /  4.8km/h 72% 0in /  0.0mm 0 W/m2
19:56 59.2 °F /  15.1 °C 50.5 °F /  10.3 °C 29.9in /  1011.2hPa WNW 0.9mph /  1.4km/h 3mph /  4.8km/h 73% 0in /  0.0mm 0 W/m2
20:01 59.2 °F /  15.1 °C 50.5 °F /  10.3 °C 29.9in /  1011.2hPa West 2mph /  3.2km/h 3mph /  4.8km/h 73% 0in /  0.0mm 0 W/m2
20:06 59.2 °F /  15.1 °C 50.5 °F /  10.3 °C 29.9in /  1011.2hPa West 2mph /  3.2km/h 4mph /  6.4km/h 73% 0in /  0.0mm 0 W/m2
20:11 59 °F /  15 °C 50.7 °F /  10.4 °C 29.9in /  1011.2hPa West 2mph /  3.2km/h 3mph /  4.8km/h 74% 0in /  0.0mm 0 W/m2
20:16 58.8 °F /  14.9 °C 50.5 °F /  10.3 °C 29.9in /  1011.2hPa West 2mph /  3.2km/h 3mph /  4.8km/h 74% 0in /  0.0mm 0 W/m2
20:21 58.8 °F /  14.9 °C 50.5 °F /  10.3 °C 29.9in /  1011.2hPa WNW 0.9mph /  1.4km/h 2mph /  3.2km/h 74% 0in /  0.0mm 0 W/m2
20:26 58.8 °F /  14.9 °C 50.5 °F /  10.3 °C 29.9in /  1011.5hPa West 2mph /  3.2km/h 2mph /  3.2km/h 74% 0in /  0.0mm 0 W/m2
20:31 58.8 °F /  14.9 °C 50.5 °F /  10.3 °C 29.9in /  1011.5hPa Calm   1mph /  1.6km/h 74% 0in /  0.0mm 0 W/m2
20:36 58.6 °F /  14.8 °C 50.7 °F /  10.4 °C 29.9in /  1011.5hPa Calm     75% 0in /  0.0mm 0 W/m2
20:41 58.6 °F /  14.8 °C 50.7 °F /  10.4 °C 29.9in /  1011.5hPa Calm     75% 0in /  0.0mm 0 W/m2
20:46 58.6 °F /  14.8 °C 50.7 °F /  10.4 °C 29.9in /  1011.5hPa Calm     75% 0in /  0.0mm 0 W/m2
20:51 58.5 °F /  14.7 °C 50.9 °F /  10.5 °C 29.9in /  1011.5hPa Calm     76% 0in /  0.0mm 0 W/m2
20:56 58.5 °F /  14.7 °C 50.9 °F /  10.5 °C 29.9in /  1011.5hPa Calm     76% 0in /  0.0mm 0 W/m2
21:01 58.3 °F /  14.6 °C 51.1 °F /  10.6 °C 29.9in /  1011.5hPa Calm     77% 0in /  0.0mm 0 W/m2
21:06 58.3 °F /  14.6 °C 51.1 °F /  10.6 °C 29.9in /  1011.5hPa West 2mph /  3.2km/h 2mph /  3.2km/h 77% 0in /  0.0mm 0 W/m2
21:11 58.3 °F /  14.6 °C 51.1 °F /  10.6 °C 29.9in /  1011.5hPa West 0.9mph /  1.4km/h 1mph /  1.6km/h 77% 0in /  0.0mm 0 W/m2
21:16 58.1 °F /  14.5 °C 50.9 °F /  10.5 °C 29.9in /  1011.5hPa Calm     77% 0in /  0.0mm 0 W/m2
21:21 58.1 °F /  14.5 °C 50.9 °F /  10.5 °C 29.9in /  1011.5hPa West 0.9mph /  1.4km/h 2mph /  3.2km/h 77% 0in /  0.0mm 0 W/m2
21:26 58.3 °F /  14.6 °C 51.1 °F /  10.6 °C 29.9in /  1011.9hPa West 2mph /  3.2km/h 3mph /  4.8km/h 77% 0in /  0.0mm 0 W/m2
21:31 58.3 °F /  14.6 °C 51.1 °F /  10.6 °C 29.9in /  1011.9hPa West 0.9mph /  1.4km/h 2mph /  3.2km/h 77% 0in /  0.0mm 0 W/m2
21:36 58.3 °F /  14.6 °C 51.1 °F /  10.6 °C 29.9in /  1011.9hPa Calm   2mph /  3.2km/h 77% 0in /  0.0mm 0 W/m2
21:41 58.1 °F /  14.5 °C 50.9 °F /  10.5 °C 29.9in /  1011.9hPa Calm     77% 0in /  0.0mm 0 W/m2
21:46 57.9 °F /  14.4 °C 51.1 °F /  10.6 °C 29.9in /  1011.9hPa Calm     78% 0in /  0.0mm 0 W/m2
21:51 57.9 °F /  14.4 °C 51.1 °F /  10.6 °C 29.9in /  1011.9hPa Calm     78% 0in /  0.0mm 0 W/m2
21:56 57.9 °F /  14.4 °C 51.4 °F /  10.8 °C 29.9in /  1011.9hPa Calm     79% 0in /  0.0mm 0 W/m2
22:01 57.7 °F /  14.3 °C 51.3 °F /  10.7 °C 29.9in /  1011.9hPa Calm     79% 0in /  0.0mm 0 W/m2
22:06 57.7 °F /  14.3 °C 51.3 °F /  10.7 °C 29.9in /  1011.9hPa Calm     79% 0in /  0.0mm 0 W/m2
22:11 57.6 °F /  14.2 °C 51.4 °F /  10.8 °C 29.9in /  1011.9hPa Calm     80% 0in /  0.0mm 0 W/m2
22:16 57.4 °F /  14.1 °C 51.3 °F /  10.7 °C 29.9in /  1011.9hPa Calm     80% 0in /  0.0mm 0 W/m2
22:21 57.4 °F /  14.1 °C 51.3 °F /  10.7 °C 29.9in /  1011.9hPa Calm     80% 0in /  0.0mm 0 W/m2
22:26 57.2 °F /  14 °C 51.1 °F /  10.6 °C 29.9in /  1011.9hPa Calm   1mph /  1.6km/h 80% 0in /  0.0mm 0 W/m2
22:31 57.2 °F /  14 °C 51.1 °F /  10.6 °C 29.9in /  1011.9hPa West 0.9mph /  1.4km/h 1mph /  1.6km/h 80% 0in /  0.0mm 0 W/m2
22:36 57.2 °F /  14 °C 51.1 °F /  10.6 °C 29.9in /  1011.9hPa Calm   1mph /  1.6km/h 80% 0in /  0.0mm 0 W/m2
22:41 57.2 °F /  14 °C 51.1 °F /  10.6 °C 29.9in /  1011.9hPa West 2mph /  3.2km/h 2mph /  3.2km/h 80% 0in /  0.0mm 0 W/m2
22:46 57.2 °F /  14 °C 51.1 °F /  10.6 °C 29.9in /  1011.9hPa Calm   1mph /  1.6km/h 80% 0in /  0.0mm 0 W/m2
22:51 57.2 °F /  14 °C 51.1 °F /  10.6 °C 29.9in /  1011.9hPa Calm     80% 0in /  0.0mm 0 W/m2
22:56 57.2 °F /  14 °C 51.1 °F /  10.6 °C 29.9in /  1011.9hPa West 0.9mph /  1.4km/h 2mph /  3.2km/h 80% 0in /  0.0mm 0 W/m2
23:01 57.2 °F /  14 °C 51.1 °F /  10.6 °C 29.9in /  1011.9hPa West 0.9mph /  1.4km/h 2mph /  3.2km/h 80% 0in /  0.0mm 0 W/m2
23:06 57 °F /  13.9 °C 50.9 °F /  10.5 °C 29.9in /  1011.9hPa Calm   3mph /  4.8km/h 80% 0in /  0.0mm 0 W/m2
23:11 57 °F /  13.9 °C 51.3 °F /  10.7 °C 29.9in /  1011.9hPa West 0.9mph /  1.4km/h 2mph /  3.2km/h 81% 0in /  0.0mm 0 W/m2
23:16 56.8 °F /  13.8 °C 51.1 °F /  10.6 °C 29.9in /  1011.9hPa West 0.9mph /  1.4km/h 2mph /  3.2km/h 81% 0in /  0.0mm 0 W/m2
23:21 56.8 °F /  13.8 °C 51.1 °F /  10.6 °C 29.9in /  1011.9hPa West 0.9mph /  1.4km/h 3mph /  4.8km/h 81% 0in /  0.0mm 0 W/m2
23:26 56.8 °F /  13.8 °C 51.1 °F /  10.6 °C 29.9in /  1011.9hPa WSW 0.9mph /  1.4km/h 2mph /  3.2km/h 81% 0in /  0.0mm 0 W/m2
23:31 56.8 °F /  13.8 °C 51.1 °F /  10.6 °C 29.9in /  1011.9hPa WSW 2.9mph /  4.7km/h 3mph /  4.8km/h 81% 0in /  0.0mm 0 W/m2
23:36 56.8 °F /  13.8 °C 51.1 °F /  10.6 °C 29.9in /  1011.9hPa WSW 2mph /  3.2km/h 4mph /  6.4km/h 81% 0in /  0.0mm 0 W/m2
23:41 56.8 °F /  13.8 °C 51.1 °F /  10.6 °C 29.9in /  1011.9hPa West 2mph /  3.2km/h 3mph /  4.8km/h 81% 0in /  0.0mm 0 W/m2
23:46 56.8 °F /  13.8 °C 51.1 °F /  10.6 °C 29.9in /  1011.9hPa WSW 2.9mph /  4.7km/h 4mph /  6.4km/h 81% 0in /  0.0mm 0 W/m2
23:51 56.8 °F /  13.8 °C 51.1 °F /  10.6 °C 29.9in /  1011.9hPa West 2.9mph /  4.7km/h 3mph /  4.8km/h 81% 0in /  0.0mm 0 W/m2
23:56 56.7 °F /  13.7 °C 50.9 °F /  10.5 °C 29.9in /  1012.2hPa West 2mph /  3.2km/h 3mph /  4.8km/h 81% 0in /  0.0mm 0 W/m2
Juneau County Weather
Compliments of Weather Underground - 4 mb